sensor_id;sensor_type;location;lat;lon;timestamp;temperature;humidity
42095;DHT22;27753;55.724;37.612;2023-06-14T00:02:08;15.00;63.00
42095;DHT22;27753;55.724;37.612;2023-06-14T00:04:34;15.00;63.80
42095;DHT22;27753;55.724;37.612;2023-06-14T00:07:01;15.00;64.10
42095;DHT22;27753;55.724;37.612;2023-06-14T00:09:26;14.90;63.80
42095;DHT22;27753;55.724;37.612;2023-06-14T00:11:52;14.90;63.70
42095;DHT22;27753;55.724;37.612;2023-06-14T00:14:18;14.90;63.50
42095;DHT22;27753;55.724;37.612;2023-06-14T00:16:44;14.90;63.80
42095;DHT22;27753;55.724;37.612;2023-06-14T00:19:10;14.90;63.90
42095;DHT22;27753;55.724;37.612;2023-06-14T00:21:36;14.80;64.00
42095;DHT22;27753;55.724;37.612;2023-06-14T00:24:04;14.80;64.00
42095;DHT22;27753;55.724;37.612;2023-06-14T00:26:30;14.80;63.80
42095;DHT22;27753;55.724;37.612;2023-06-14T00:28:56;14.80;63.80
42095;DHT22;27753;55.724;37.612;2023-06-14T00:31:22;14.80;64.00
42095;DHT22;27753;55.724;37.612;2023-06-14T00:33:48;14.80;64.00
42095;DHT22;27753;55.724;37.612;2023-06-14T00:36:14;14.80;63.90
42095;DHT22;27753;55.724;37.612;2023-06-14T00:38:40;14.80;64.00
42095;DHT22;27753;55.724;37.612;2023-06-14T00:41:06;14.80;64.20
42095;DHT22;27753;55.724;37.612;2023-06-14T00:43:32;14.80;64.40
42095;DHT22;27753;55.724;37.612;2023-06-14T00:46:00;14.70;64.40
42095;DHT22;27753;55.724;37.612;2023-06-14T00:48:26;14.70;64.70
42095;DHT22;27753;55.724;37.612;2023-06-14T00:50:52;14.70;64.90
42095;DHT22;27753;55.724;37.612;2023-06-14T00:53:19;14.70;64.90
42095;DHT22;27753;55.724;37.612;2023-06-14T00:55:46;14.70;64.90
42095;DHT22;27753;55.724;37.612;2023-06-14T00:58:13;14.70;64.90
42095;DHT22;27753;55.724;37.612;2023-06-14T01:00:39;14.70;64.90
42095;DHT22;27753;55.724;37.612;2023-06-14T01:03:05;14.60;65.20
42095;DHT22;27753;55.724;37.612;2023-06-14T01:05:32;14.60;65.40
42095;DHT22;27753;55.724;37.612;2023-06-14T01:08:14;14.60;65.60
42095;DHT22;27753;55.724;37.612;2023-06-14T01:13:28;14.60;66.40
42095;DHT22;27753;55.724;37.612;2023-06-14T01:15:55;14.50;65.80
42095;DHT22;27753;55.724;37.612;2023-06-14T01:18:22;14.60;66.10
42095;DHT22;27753;55.724;37.612;2023-06-14T01:20:49;14.50;66.10
42095;DHT22;27753;55.724;37.612;2023-06-14T01:23:20;14.50;66.10
42095;DHT22;27753;55.724;37.612;2023-06-14T01:25:47;14.60;66.10
42095;DHT22;27753;55.724;37.612;2023-06-14T01:28:15;14.60;66.00
42095;DHT22;27753;55.724;37.612;2023-06-14T01:30:43;14.70;65.90
42095;DHT22;27753;55.724;37.612;2023-06-14T01:33:18;14.70;65.90
42095;DHT22;27753;55.724;37.612;2023-06-14T01:35:51;14.80;65.80
42095;DHT22;27753;55.724;37.612;2023-06-14T01:38:24;14.80;65.90
42095;DHT22;27753;55.724;37.612;2023-06-14T01:40:52;14.70;66.00
42095;DHT22;27753;55.724;37.612;2023-06-14T01:43:20;14.80;66.00
42095;DHT22;27753;55.724;37.612;2023-06-14T01:45:47;14.80;66.00
42095;DHT22;27753;55.724;37.612;2023-06-14T01:48:17;14.80;66.10
42095;DHT22;27753;55.724;37.612;2023-06-14T01:50:43;14.90;66.00
42095;DHT22;27753;55.724;37.612;2023-06-14T01:53:09;14.90;65.80
42095;DHT22;27753;55.724;37.612;2023-06-14T01:55:35;15.00;65.70
42095;DHT22;27753;55.724;37.612;2023-06-14T01:58:03;15.10;65.80
42095;DHT22;27753;55.724;37.612;2023-06-14T02:00:29;15.10;65.20
42095;DHT22;27753;55.724;37.612;2023-06-14T02:02:55;15.10;65.70
42095;DHT22;27753;55.724;37.612;2023-06-14T02:05:21;15.10;65.70
42095;DHT22;27753;55.724;37.612;2023-06-14T02:07:47;15.10;65.60
42095;DHT22;27753;55.724;37.612;2023-06-14T02:10:13;15.10;65.80
42095;DHT22;27753;55.724;37.612;2023-06-14T02:12:40;15.20;65.60
42095;DHT22;27753;55.724;37.612;2023-06-14T02:15:06;15.20;65.40
42095;DHT22;27753;55.724;37.612;2023-06-14T02:17:32;15.30;65.20
42095;DHT22;27753;55.724;37.612;2023-06-14T02:19:59;15.30;65.30
42095;DHT22;27753;55.724;37.612;2023-06-14T02:22:25;15.40;65.20
42095;DHT22;27753;55.724;37.612;2023-06-14T02:24:51;15.40;65.00
42095;DHT22;27753;55.724;37.612;2023-06-14T02:27:17;15.50;64.70
42095;DHT22;27753;55.724;37.612;2023-06-14T02:29:43;15.50;64.70
42095;DHT22;27753;55.724;37.612;2023-06-14T02:32:09;15.60;64.60
42095;DHT22;27753;55.724;37.612;2023-06-14T02:34:35;15.60;64.40
42095;DHT22;27753;55.724;37.612;2023-06-14T02:37:02;15.70;64.40
42095;DHT22;27753;55.724;37.612;2023-06-14T02:39:30;15.70;64.20
42095;DHT22;27753;55.724;37.612;2023-06-14T02:41:56;15.80;64.00
42095;DHT22;27753;55.724;37.612;2023-06-14T02:44:26;15.90;63.90
42095;DHT22;27753;55.724;37.612;2023-06-14T02:46:53;15.90;63.60
42095;DHT22;27753;55.724;37.612;2023-06-14T02:49:20;16.00;63.80
42095;DHT22;27753;55.724;37.612;2023-06-14T02:51:45;16.00;63.40
42095;DHT22;27753;55.724;37.612;2023-06-14T02:54:11;16.10;63.30
42095;DHT22;27753;55.724;37.612;2023-06-14T02:56:37;16.20;63.30
42095;DHT22;27753;55.724;37.612;2023-06-14T02:59:03;16.30;63.00
42095;DHT22;27753;55.724;37.612;2023-06-14T03:01:29;16.50;62.60
42095;DHT22;27753;55.724;37.612;2023-06-14T03:04:03;16.60;62.20
42095;DHT22;27753;55.724;37.612;2023-06-14T03:06:32;16.70;61.60
42095;DHT22;27753;55.724;37.612;2023-06-14T03:08:59;16.90;61.40
42095;DHT22;27753;55.724;37.612;2023-06-14T03:11:27;17.20;60.80
42095;DHT22;27753;55.724;37.612;2023-06-14T03:13:53;17.50;60.20
42095;DHT22;27753;55.724;37.612;2023-06-14T03:16:19;17.60;59.60
42095;DHT22;27753;55.724;37.612;2023-06-14T03:18:51;17.60;59.40
42095;DHT22;27753;55.724;37.612;2023-06-14T03:21:17;17.60;59.60
42095;DHT22;27753;55.724;37.612;2023-06-14T03:23:43;17.60;59.70
42095;DHT22;27753;55.724;37.612;2023-06-14T03:26:10;17.60;59.40
42095;DHT22;27753;55.724;37.612;2023-06-14T03:28:40;17.60;59.30
42095;DHT22;27753;55.724;37.612;2023-06-14T03:31:06;17.60;59.50
42095;DHT22;27753;55.724;37.612;2023-06-14T03:33:32;17.60;59.40
42095;DHT22;27753;55.724;37.612;2023-06-14T03:35:57;17.60;59.40
42095;DHT22;27753;55.724;37.612;2023-06-14T03:38:23;17.60;59.60
42095;DHT22;27753;55.724;37.612;2023-06-14T03:40:49;17.70;59.70
42095;DHT22;27753;55.724;37.612;2023-06-14T03:43:15;17.70;59.40
42095;DHT22;27753;55.724;37.612;2023-06-14T03:45:41;17.80;59.10
42095;DHT22;27753;55.724;37.612;2023-06-14T03:48:06;17.90;58.50
42095;DHT22;27753;55.724;37.612;2023-06-14T03:50:34;18.00;58.10
42095;DHT22;27753;55.724;37.612;2023-06-14T03:53:00;18.00;58.20
42095;DHT22;27753;55.724;37.612;2023-06-14T03:55:27;18.00;57.70
42095;DHT22;27753;55.724;37.612;2023-06-14T03:57:53;18.10;57.70
42095;DHT22;27753;55.724;37.612;2023-06-14T04:00:19;18.20;57.50
42095;DHT22;27753;55.724;37.612;2023-06-14T04:02:45;18.20;57.10
42095;DHT22;27753;55.724;37.612;2023-06-14T04:05:11;18.30;57.30
42095;DHT22;27753;55.724;37.612;2023-06-14T04:07:37;18.40;57.20
42095;DHT22;27753;55.724;37.612;2023-06-14T04:10:07;18.50;57.00
42095;DHT22;27753;55.724;37.612;2023-06-14T04:12:36;18.50;57.00
42095;DHT22;27753;55.724;37.612;2023-06-14T04:15:03;18.60;56.60
42095;DHT22;27753;55.724;37.612;2023-06-14T04:17:31;18.70;56.40
42095;DHT22;27753;55.724;37.612;2023-06-14T04:19:59;18.70;55.70
42095;DHT22;27753;55.724;37.612;2023-06-14T04:22:28;18.80;55.50
42095;DHT22;27753;55.724;37.612;2023-06-14T04:24:55;18.90;55.50
42095;DHT22;27753;55.724;37.612;2023-06-14T04:27:25;19.00;55.40
42095;DHT22;27753;55.724;37.612;2023-06-14T04:29:55;19.00;55.70
42095;DHT22;27753;55.724;37.612;2023-06-14T04:32:26;19.10;55.70
42095;DHT22;27753;55.724;37.612;2023-06-14T04:34:55;19.10;55.40
42095;DHT22;27753;55.724;37.612;2023-06-14T04:37:22;19.10;55.30
42095;DHT22;27753;55.724;37.612;2023-06-14T04:39:50;19.20;55.20
42095;DHT22;27753;55.724;37.612;2023-06-14T04:42:17;19.30;54.70
42095;DHT22;27753;55.724;37.612;2023-06-14T04:44:46;19.40;54.40
42095;DHT22;27753;55.724;37.612;2023-06-14T04:47:13;19.40;54.20
42095;DHT22;27753;55.724;37.612;2023-06-14T04:49:39;19.40;54.20
42095;DHT22;27753;55.724;37.612;2023-06-14T04:52:07;19.40;54.20
42095;DHT22;27753;55.724;37.612;2023-06-14T04:54:33;19.50;54.00
42095;DHT22;27753;55.724;37.612;2023-06-14T04:57:00;19.50;53.90
42095;DHT22;27753;55.724;37.612;2023-06-14T04:59:27;19.60;54.00
42095;DHT22;27753;55.724;37.612;2023-06-14T05:01:53;19.70;53.60
42095;DHT22;27753;55.724;37.612;2023-06-14T05:04:19;19.80;53.90
42095;DHT22;27753;55.724;37.612;2023-06-14T05:06:46;19.90;52.90
42095;DHT22;27753;55.724;37.612;2023-06-14T05:09:14;20.00;53.50
42095;DHT22;27753;55.724;37.612;2023-06-14T05:11:43;20.10;54.00
42095;DHT22;27753;55.724;37.612;2023-06-14T05:14:13;20.70;52.80
42095;DHT22;27753;55.724;37.612;2023-06-14T05:16:40;21.50;51.20
42095;DHT22;27753;55.724;37.612;2023-06-14T05:19:06;22.50;49.40
42095;DHT22;27753;55.724;37.612;2023-06-14T05:21:32;23.80;47.10
42095;DHT22;27753;55.724;37.612;2023-06-14T05:26:27;25.00;44.80
42095;DHT22;27753;55.724;37.612;2023-06-14T05:28:57;27.00;42.30
42095;DHT22;27753;55.724;37.612;2023-06-14T05:31:26;27.70;40.90
42095;DHT22;27753;55.724;37.612;2023-06-14T05:33:52;27.80;40.00
42095;DHT22;27753;55.724;37.612;2023-06-14T05:36:22;28.30;38.30
42095;DHT22;27753;55.724;37.612;2023-06-14T05:38:48;28.30;38.20
42095;DHT22;27753;55.724;37.612;2023-06-14T05:41:14;28.30;38.30
42095;DHT22;27753;55.724;37.612;2023-06-14T05:43:40;29.40;37.50
42095;DHT22;27753;55.724;37.612;2023-06-14T05:46:06;29.50;36.30
42095;DHT22;27753;55.724;37.612;2023-06-14T05:48:31;29.50;36.30
42095;DHT22;27753;55.724;37.612;2023-06-14T05:50:58;29.30;36.50
42095;DHT22;27753;55.724;37.612;2023-06-14T05:53:24;29.50;36.30
42095;DHT22;27753;55.724;37.612;2023-06-14T05:55:51;30.00;35.50
42095;DHT22;27753;55.724;37.612;2023-06-14T05:58:21;30.20;35.30
42095;DHT22;27753;55.724;37.612;2023-06-14T06:00:47;30.40;35.10
42095;DHT22;27753;55.724;37.612;2023-06-14T06:03:13;30.70;35.90
42095;DHT22;27753;55.724;37.612;2023-06-14T06:05:39;31.20;34.40
42095;DHT22;27753;55.724;37.612;2023-06-14T06:08:05;31.60;33.40
42095;DHT22;27753;55.724;37.612;2023-06-14T06:10:32;32.10;32.90
42095;DHT22;27753;55.724;37.612;2023-06-14T06:15:27;32.90;32.30
42095;DHT22;27753;55.724;37.612;2023-06-14T06:17:52;34.30;30.90
42095;DHT22;27753;55.724;37.612;2023-06-14T06:20:22;34.10;30.90
42095;DHT22;27753;55.724;37.612;2023-06-14T06:22:53;34.40;30.60
42095;DHT22;27753;55.724;37.612;2023-06-14T06:25:19;35.10;30.00
42095;DHT22;27753;55.724;37.612;2023-06-14T06:27:45;35.50;30.00
42095;DHT22;27753;55.724;37.612;2023-06-14T06:30:11;36.10;29.80
42095;DHT22;27753;55.724;37.612;2023-06-14T06:32:37;35.80;29.50
42095;DHT22;27753;55.724;37.612;2023-06-14T06:35:03;36.30;29.00
42095;DHT22;27753;55.724;37.612;2023-06-14T06:37:31;36.50;28.90
42095;DHT22;27753;55.724;37.612;2023-06-14T06:39:57;37.00;28.70
42095;DHT22;27753;55.724;37.612;2023-06-14T06:42:23;37.10;28.10
42095;DHT22;27753;55.724;37.612;2023-06-14T06:44:49;36.10;28.30
42095;DHT22;27753;55.724;37.612;2023-06-14T06:47:15;35.70;28.70
42095;DHT22;27753;55.724;37.612;2023-06-14T06:49:41;35.80;28.80
42095;DHT22;27753;55.724;37.612;2023-06-14T06:52:07;35.30;28.40
42095;DHT22;27753;55.724;37.612;2023-06-14T06:54:33;35.10;29.10
42095;DHT22;27753;55.724;37.612;2023-06-14T06:57:00;35.80;28.90
42095;DHT22;27753;55.724;37.612;2023-06-14T06:59:27;36.00;29.00
42095;DHT22;27753;55.724;37.612;2023-06-14T07:01:53;36.10;28.50
42095;DHT22;27753;55.724;37.612;2023-06-14T07:04:19;36.30;28.00
42095;DHT22;27753;55.724;37.612;2023-06-14T07:06:46;36.20;28.10
42095;DHT22;27753;55.724;37.612;2023-06-14T07:09:12;36.70;28.10
42095;DHT22;27753;55.724;37.612;2023-06-14T07:11:40;36.30;27.90
42095;DHT22;27753;55.724;37.612;2023-06-14T07:14:06;35.10;28.40
42095;DHT22;27753;55.724;37.612;2023-06-14T07:16:32;35.10;29.00
42095;DHT22;27753;55.724;37.612;2023-06-14T07:18:58;35.70;29.00
42095;DHT22;27753;55.724;37.612;2023-06-14T07:21:25;36.80;28.50
42095;DHT22;27753;55.724;37.612;2023-06-14T07:23:52;37.20;27.90
42095;DHT22;27753;55.724;37.612;2023-06-14T07:26:18;36.90;27.80
42095;DHT22;27753;55.724;37.612;2023-06-14T07:28:44;36.30;28.20
42095;DHT22;27753;55.724;37.612;2023-06-14T07:31:10;36.60;27.90
42095;DHT22;27753;55.724;37.612;2023-06-14T07:33:38;37.60;27.90
42095;DHT22;27753;55.724;37.612;2023-06-14T07:45:48;40.50;27.00
42095;DHT22;27753;55.724;37.612;2023-06-14T08:05:26;42.90;27.00
42095;DHT22;27753;55.724;37.612;2023-06-14T08:07:52;39.40;26.50
42095;DHT22;27753;55.724;37.612;2023-06-14T08:10:18;39.50;25.70
42095;DHT22;27753;55.724;37.612;2023-06-14T08:12:44;40.00;26.30
42095;DHT22;27753;55.724;37.612;2023-06-14T08:15:10;40.60;26.30
42095;DHT22;27753;55.724;37.612;2023-06-14T08:17:37;40.70;26.50
42095;DHT22;27753;55.724;37.612;2023-06-14T08:20:05;40.30;26.30
42095;DHT22;27753;55.724;37.612;2023-06-14T08:22:31;40.90;26.40
42095;DHT22;27753;55.724;37.612;2023-06-14T08:25:00;41.90;26.20
42095;DHT22;27753;55.724;37.612;2023-06-14T08:29:53;42.50;26.00
42095;DHT22;27753;55.724;37.612;2023-06-14T08:32:19;43.40;25.80
42095;DHT22;27753;55.724;37.612;2023-06-14T08:34:44;43.20;26.00
42095;DHT22;27753;55.724;37.612;2023-06-14T08:37:10;42.00;25.40
42095;DHT22;27753;55.724;37.612;2023-06-14T08:39:37;40.40;25.90
42095;DHT22;27753;55.724;37.612;2023-06-14T08:42:03;39.10;26.50
42095;DHT22;27753;55.724;37.612;2023-06-14T08:44:30;38.10;27.10
42095;DHT22;27753;55.724;37.612;2023-06-14T08:46:56;38.50;27.20
42095;DHT22;27753;55.724;37.612;2023-06-14T08:49:25;39.90;26.90
42095;DHT22;27753;55.724;37.612;2023-06-14T08:51:53;40.90;26.50
42095;DHT22;27753;55.724;37.612;2023-06-14T08:54:23;41.30;26.60
42095;DHT22;27753;55.724;37.612;2023-06-14T08:56:51;41.60;26.20
42095;DHT22;27753;55.724;37.612;2023-06-14T08:59:18;41.20;26.60
42095;DHT22;27753;55.724;37.612;2023-06-14T09:01:45;40.50;26.40
42095;DHT22;27753;55.724;37.612;2023-06-14T09:04:14;40.70;26.10
42095;DHT22;27753;55.724;37.612;2023-06-14T09:06:41;40.40;26.40
42095;DHT22;27753;55.724;37.612;2023-06-14T09:09:07;40.80;26.10
42095;DHT22;27753;55.724;37.612;2023-06-14T09:14:37;41.20;26.50
42095;DHT22;27753;55.724;37.612;2023-06-14T09:17:18;41.20;26.20
42095;DHT22;27753;55.724;37.612;2023-06-14T09:19:47;41.30;25.50
42095;DHT22;27753;55.724;37.612;2023-06-14T09:25:30;40.60;26.00
42095;DHT22;27753;55.724;37.612;2023-06-14T09:27:59;40.90;26.20
42095;DHT22;27753;55.724;37.612;2023-06-14T09:30:24;40.90;25.90
42095;DHT22;27753;55.724;37.612;2023-06-14T09:32:50;40.80;26.20
42095;DHT22;27753;55.724;37.612;2023-06-14T09:35:20;40.20;25.90
42095;DHT22;27753;55.724;37.612;2023-06-14T09:37:46;40.30;26.10
42095;DHT22;27753;55.724;37.612;2023-06-14T09:40:13;40.90;26.10
42095;DHT22;27753;55.724;37.612;2023-06-14T09:42:38;39.90;26.00
42095;DHT22;27753;55.724;37.612;2023-06-14T09:45:08;40.30;26.50
42095;DHT22;27753;55.724;37.612;2023-06-14T09:47:36;41.20;26.20
42095;DHT22;27753;55.724;37.612;2023-06-14T09:50:03;41.80;25.80
42095;DHT22;27753;55.724;37.612;2023-06-14T09:52:28;42.00;25.60
42095;DHT22;27753;55.724;37.612;2023-06-14T09:54:55;41.90;25.90
42095;DHT22;27753;55.724;37.612;2023-06-14T09:57:22;41.50;25.60
42095;DHT22;27753;55.724;37.612;2023-06-14T09:59:57;40.60;25.70
42095;DHT22;27753;55.724;37.612;2023-06-14T10:02:41;39.70;26.30
42095;DHT22;27753;55.724;37.612;2023-06-14T10:05:14;39.70;26.50
42095;DHT22;27753;55.724;37.612;2023-06-14T10:07:52;39.90;26.40
42095;DHT22;27753;55.724;37.612;2023-06-14T10:13:13;40.40;26.60
42095;DHT22;27753;55.724;37.612;2023-06-14T10:27:24;38.70;27.30
42095;DHT22;27753;55.724;37.612;2023-06-14T10:32:18;37.90;26.80
42095;DHT22;27753;55.724;37.612;2023-06-14T10:34:44;35.90;27.20
42095;DHT22;27753;55.724;37.612;2023-06-14T10:37:12;33.40;28.00
42095;DHT22;27753;55.724;37.612;2023-06-14T10:39:39;31.40;29.00
42095;DHT22;27753;55.724;37.612;2023-06-14T10:42:05;30.00;30.90
42095;DHT22;27753;55.724;37.612;2023-06-14T11:04:12;26.30;34.40
42095;DHT22;27753;55.724;37.612;2023-06-14T11:06:47;25.90;34.20
42095;DHT22;27753;55.724;37.612;2023-06-14T11:12:07;25.40;34.90
42095;DHT22;27753;55.724;37.612;2023-06-14T11:14:35;25.30;35.40
42095;DHT22;27753;55.724;37.612;2023-06-14T11:17:01;25.30;35.90
42095;DHT22;27753;55.724;37.612;2023-06-14T11:29:14;25.20;35.70
42095;DHT22;27753;55.724;37.612;2023-06-14T11:31:44;25.10;37.40
42095;DHT22;27753;55.724;37.612;2023-06-14T11:34:11;25.00;37.10
42095;DHT22;27753;55.724;37.612;2023-06-14T11:36:38;25.00;37.10
42095;DHT22;27753;55.724;37.612;2023-06-14T11:39:06;25.00;37.30
42095;DHT22;27753;55.724;37.612;2023-06-14T11:41:39;25.00;36.90
42095;DHT22;27753;55.724;37.612;2023-06-14T11:44:05;24.90;36.90
42095;DHT22;27753;55.724;37.612;2023-06-14T11:46:31;24.80;36.60
42095;DHT22;27753;55.724;37.612;2023-06-14T11:48:57;24.80;37.40
42095;DHT22;27753;55.724;37.612;2023-06-14T11:51:23;24.80;37.40
42095;DHT22;27753;55.724;37.612;2023-06-14T11:53:49;24.80;37.30
42095;DHT22;27753;55.724;37.612;2023-06-14T11:56:18;24.80;37.50
42095;DHT22;27753;55.724;37.612;2023-06-14T11:58:44;24.70;37.80
42095;DHT22;27753;55.724;37.612;2023-06-14T12:01:14;24.70;38.00
42095;DHT22;27753;55.724;37.612;2023-06-14T12:03:39;24.60;37.80
42095;DHT22;27753;55.724;37.612;2023-06-14T12:06:12;24.50;37.60
42095;DHT22;27753;55.724;37.612;2023-06-14T12:08:38;24.50;37.80
42095;DHT22;27753;55.724;37.612;2023-06-14T12:11:13;24.50;38.10
42095;DHT22;27753;55.724;37.612;2023-06-14T12:13:39;24.50;38.00
42095;DHT22;27753;55.724;37.612;2023-06-14T12:16:09;24.60;37.90
42095;DHT22;27753;55.724;37.612;2023-06-14T12:18:35;24.60;38.20
42095;DHT22;27753;55.724;37.612;2023-06-14T12:21:02;24.60;38.10
42095;DHT22;27753;55.724;37.612;2023-06-14T12:23:46;24.60;38.30
42095;DHT22;27753;55.724;37.612;2023-06-14T12:26:16;24.60;38.20
42095;DHT22;27753;55.724;37.612;2023-06-14T12:28:42;24.60;38.00
42095;DHT22;27753;55.724;37.612;2023-06-14T12:31:08;24.50;38.20
42095;DHT22;27753;55.724;37.612;2023-06-14T12:33:34;24.30;38.00
42095;DHT22;27753;55.724;37.612;2023-06-14T12:36:02;24.30;38.10
42095;DHT22;27753;55.724;37.612;2023-06-14T12:38:28;24.30;38.40
42095;DHT22;27753;55.724;37.612;2023-06-14T12:40:54;24.40;38.00
42095;DHT22;27753;55.724;37.612;2023-06-14T12:43:20;24.40;37.50
42095;DHT22;27753;55.724;37.612;2023-06-14T12:45:45;24.40;37.60
42095;DHT22;27753;55.724;37.612;2023-06-14T12:48:11;24.40;37.20
42095;DHT22;27753;55.724;37.612;2023-06-14T12:50:37;24.40;37.30
42095;DHT22;27753;55.724;37.612;2023-06-14T12:53:03;24.40;37.50
42095;DHT22;27753;55.724;37.612;2023-06-14T12:55:28;24.50;37.30
42095;DHT22;27753;55.724;37.612;2023-06-14T12:57:54;24.50;37.30
42095;DHT22;27753;55.724;37.612;2023-06-14T13:00:19;24.50;36.90
42095;DHT22;27753;55.724;37.612;2023-06-14T13:02:46;24.50;37.20
42095;DHT22;27753;55.724;37.612;2023-06-14T13:05:12;24.50;37.40
42095;DHT22;27753;55.724;37.612;2023-06-14T13:07:38;24.50;37.50
42095;DHT22;27753;55.724;37.612;2023-06-14T13:10:04;24.50;37.80
42095;DHT22;27753;55.724;37.612;2023-06-14T13:12:35;24.40;37.60
42095;DHT22;27753;55.724;37.612;2023-06-14T13:15:13;24.40;37.70
42095;DHT22;27753;55.724;37.612;2023-06-14T13:17:46;24.40;38.20
42095;DHT22;27753;55.724;37.612;2023-06-14T13:20:14;24.30;38.10
42095;DHT22;27753;55.724;37.612;2023-06-14T13:22:39;24.20;38.20
42095;DHT22;27753;55.724;37.612;2023-06-14T13:25:05;24.20;38.50
42095;DHT22;27753;55.724;37.612;2023-06-14T13:27:31;24.20;38.40
42095;DHT22;27753;55.724;37.612;2023-06-14T13:29:57;24.20;38.20
42095;DHT22;27753;55.724;37.612;2023-06-14T13:32:23;24.30;38.40
42095;DHT22;27753;55.724;37.612;2023-06-14T13:34:49;24.40;38.40
42095;DHT22;27753;55.724;37.612;2023-06-14T13:37:14;24.50;38.20
42095;DHT22;27753;55.724;37.612;2023-06-14T13:39:40;25.50;38.20
42095;DHT22;27753;55.724;37.612;2023-06-14T13:42:06;27.10;37.80
42095;DHT22;27753;55.724;37.612;2023-06-14T13:44:31;28.20;36.60
42095;DHT22;27753;55.724;37.612;2023-06-14T13:46:57;29.00;35.40
42095;DHT22;27753;55.724;37.612;2023-06-14T16:57:38;29.80;34.20
42095;DHT22;27753;55.724;37.612;2023-06-14T17:00:05;23.30;39.90
42095;DHT22;27753;55.724;37.612;2023-06-14T17:02:31;23.00;39.90
42095;DHT22;27753;55.724;37.612;2023-06-14T17:04:57;22.90;39.80
42095;DHT22;27753;55.724;37.612;2023-06-14T17:07:22;22.90;39.90
42095;DHT22;27753;55.724;37.612;2023-06-14T17:09:49;22.90;40.00
42095;DHT22;27753;55.724;37.612;2023-06-14T17:12:14;22.90;40.30
42095;DHT22;27753;55.724;37.612;2023-06-14T17:14:40;22.80;40.40
42095;DHT22;27753;55.724;37.612;2023-06-14T17:17:10;22.80;40.30
42095;DHT22;27753;55.724;37.612;2023-06-14T17:19:47;22.80;40.30
42095;DHT22;27753;55.724;37.612;2023-06-14T17:22:22;22.80;40.50
42095;DHT22;27753;55.724;37.612;2023-06-14T17:24:55;22.70;40.90
42095;DHT22;27753;55.724;37.612;2023-06-14T17:27:21;22.70;40.80
42095;DHT22;27753;55.724;37.612;2023-06-14T17:29:47;22.70;41.10
42095;DHT22;27753;55.724;37.612;2023-06-14T17:32:13;22.60;40.90
42095;DHT22;27753;55.724;37.612;2023-06-14T17:34:39;22.50;41.10
42095;DHT22;27753;55.724;37.612;2023-06-14T17:37:04;22.50;41.00
42095;DHT22;27753;55.724;37.612;2023-06-14T17:39:30;22.50;41.30
42095;DHT22;27753;55.724;37.612;2023-06-14T17:41:56;22.40;41.60
42095;DHT22;27753;55.724;37.612;2023-06-14T17:44:21;22.50;41.60
42095;DHT22;27753;55.724;37.612;2023-06-14T17:46:47;22.40;41.50
42095;DHT22;27753;55.724;37.612;2023-06-14T17:49:13;22.40;41.70
42095;DHT22;27753;55.724;37.612;2023-06-14T17:51:38;22.40;41.70
42095;DHT22;27753;55.724;37.612;2023-06-14T17:54:07;22.30;41.70
42095;DHT22;27753;55.724;37.612;2023-06-14T17:56:33;22.30;41.50
42095;DHT22;27753;55.724;37.612;2023-06-14T17:59:02;22.20;41.20
42095;DHT22;27753;55.724;37.612;2023-06-14T18:01:27;22.10;41.20
42095;DHT22;27753;55.724;37.612;2023-06-14T18:03:53;22.20;41.10
42095;DHT22;27753;55.724;37.612;2023-06-14T18:06:19;22.00;40.90
42095;DHT22;27753;55.724;37.612;2023-06-14T18:08:44;22.00;41.00
42095;DHT22;27753;55.724;37.612;2023-06-14T18:11:12;22.00;41.00
42095;DHT22;27753;55.724;37.612;2023-06-14T18:13:38;22.00;41.00
42095;DHT22;27753;55.724;37.612;2023-06-14T18:16:04;22.00;41.00
42095;DHT22;27753;55.724;37.612;2023-06-14T18:18:30;22.00;41.20
42095;DHT22;27753;55.724;37.612;2023-06-14T18:20:55;21.90;41.20
42095;DHT22;27753;55.724;37.612;2023-06-14T18:23:24;21.80;41.30
42095;DHT22;27753;55.724;37.612;2023-06-14T18:25:50;21.70;41.30
42095;DHT22;27753;55.724;37.612;2023-06-14T18:28:15;21.70;41.60
42095;DHT22;27753;55.724;37.612;2023-06-14T18:30:41;21.70;41.70
42095;DHT22;27753;55.724;37.612;2023-06-14T18:33:07;21.60;41.70
42095;DHT22;27753;55.724;37.612;2023-06-14T18:35:32;21.60;41.90
42095;DHT22;27753;55.724;37.612;2023-06-14T18:37:58;21.50;42.40
42095;DHT22;27753;55.724;37.612;2023-06-14T18:40:24;21.50;42.50
42095;DHT22;27753;55.724;37.612;2023-06-14T18:42:50;21.40;42.40
42095;DHT22;27753;55.724;37.612;2023-06-14T20:17:56;21.40;42.60
42095;DHT22;27753;55.724;37.612;2023-06-14T20:20:22;20.30;46.10
42095;DHT22;27753;55.724;37.612;2023-06-14T20:22:48;20.20;45.70
42095;DHT22;27753;55.724;37.612;2023-06-14T20:25:13;20.10;45.70
42095;DHT22;27753;55.724;37.612;2023-06-14T20:27:39;20.10;45.60
42095;DHT22;27753;55.724;37.612;2023-06-14T20:30:05;20.00;45.70
42095;DHT22;27753;55.724;37.612;2023-06-14T20:32:31;20.00;45.80
42095;DHT22;27753;55.724;37.612;2023-06-14T20:34:56;20.00;45.80
42095;DHT22;27753;55.724;37.612;2023-06-14T20:37:22;20.00;45.80
42095;DHT22;27753;55.724;37.612;2023-06-14T20:39:50;20.00;45.80
42095;DHT22;27753;55.724;37.612;2023-06-14T20:42:15;19.90;45.90
42095;DHT22;27753;55.724;37.612;2023-06-14T20:44:41;19.90;45.90
42095;DHT22;27753;55.724;37.612;2023-06-14T20:47:07;19.90;45.80
42095;DHT22;27753;55.724;37.612;2023-06-14T20:49:40;19.90;45.90
42095;DHT22;27753;55.724;37.612;2023-06-14T20:52:09;19.80;46.00
42095;DHT22;27753;55.724;37.612;2023-06-14T20:54:35;19.80;46.10
42095;DHT22;27753;55.724;37.612;2023-06-14T20:57:02;19.80;46.00
42095;DHT22;27753;55.724;37.612;2023-06-14T20:59:29;19.70;46.20
42095;DHT22;27753;55.724;37.612;2023-06-14T21:01:55;19.70;46.30
42095;DHT22;27753;55.724;37.612;2023-06-14T21:04:21;19.70;46.30
42095;DHT22;27753;55.724;37.612;2023-06-14T21:06:47;19.60;46.30
42095;DHT22;27753;55.724;37.612;2023-06-14T21:09:12;19.50;46.60
42095;DHT22;27753;55.724;37.612;2023-06-14T21:11:38;19.50;46.60
42095;DHT22;27753;55.724;37.612;2023-06-14T21:14:04;19.50;46.60
42095;DHT22;27753;55.724;37.612;2023-06-14T21:16:29;19.40;46.60
42095;DHT22;27753;55.724;37.612;2023-06-14T21:18:55;19.30;46.70
42095;DHT22;27753;55.724;37.612;2023-06-14T21:21:21;19.20;46.90
42095;DHT22;27753;55.724;37.612;2023-06-14T21:23:46;19.10;46.90
42095;DHT22;27753;55.724;37.612;2023-06-14T21:26:12;19.00;47.00
42095;DHT22;27753;55.724;37.612;2023-06-14T21:28:38;19.00;47.20